createdAt,value
2018-03-02T00:00:57.044Z,47.10
2018-03-02T00:03:29.682Z,47.20
2018-03-02T00:06:01.559Z,47.20
2018-03-02T00:08:33.443Z,47.30
2018-03-02T00:11:06.145Z,47.30
2018-03-02T00:13:38.015Z,47.20
2018-03-02T00:16:09.905Z,47.40
2018-03-02T00:18:41.779Z,47.50
2018-03-02T00:21:13.979Z,47.70
2018-03-02T00:23:45.852Z,47.80
2018-03-02T00:26:17.777Z,47.70
2018-03-02T00:28:49.667Z,47.70
2018-03-02T00:31:21.560Z,48.30
2018-03-02T00:33:53.431Z,47.70
2018-03-02T00:36:25.329Z,47.50
2018-03-02T00:38:57.963Z,47.60
2018-03-02T00:41:29.869Z,47.50
2018-03-02T00:44:02.507Z,47.40
2018-03-02T00:46:34.413Z,47.40
2018-03-02T00:49:07.057Z,47.60
2018-03-02T00:51:38.953Z,47.60
2018-03-02T00:54:10.844Z,47.50
2018-03-02T00:56:42.723Z,47.50
2018-03-02T00:59:14.604Z,47.60
2018-03-02T01:01:46.511Z,47.60
2018-03-02T01:04:18.396Z,47.50
2018-03-02T01:06:50.295Z,47.60
2018-03-02T01:09:22.192Z,47.60
2018-03-02T01:11:54.101Z,47.40
2018-03-02T01:14:26.303Z,47.80
2018-03-02T01:16:58.208Z,47.90
2018-03-02T01:19:30.080Z,48.00
2018-03-02T01:22:02.024Z,48.10
2018-03-02T01:24:33.904Z,47.90
2018-03-02T01:27:05.824Z,48.00
2018-03-02T01:29:37.728Z,48.20
2018-03-02T01:32:09.627Z,48.00
2018-03-02T01:34:41.508Z,48.10
2018-03-02T01:37:13.426Z,48.10
2018-03-02T01:39:45.300Z,48.20
2018-03-02T01:42:18.298Z,48.10
2018-03-02T01:44:50.176Z,48.10
2018-03-02T01:47:22.100Z,48.20
2018-03-02T01:49:54.749Z,48.30
2018-03-02T01:52:26.648Z,48.20
2018-03-02T01:54:58.818Z,48.30
2018-03-02T01:57:30.727Z,48.40
2018-03-02T02:00:02.848Z,48.50
2018-03-02T02:02:34.744Z,48.30
2018-03-02T02:05:06.619Z,48.20
2018-03-02T02:07:38.532Z,48.30
2018-03-02T02:10:10.414Z,48.60
2018-03-02T02:12:42.332Z,48.50
2018-03-02T02:15:14.971Z,48.50
2018-03-02T02:17:46.864Z,48.50
2018-03-02T02:20:19.771Z,48.70
2018-03-02T02:22:51.672Z,48.50
2018-03-02T02:25:23.796Z,48.60
2018-03-02T02:27:55.700Z,48.50
2018-03-02T02:30:27.589Z,48.50
2018-03-02T02:32:59.484Z,48.60
2018-03-02T02:35:31.365Z,48.60
2018-03-02T02:38:03.267Z,48.80
2018-03-02T02:40:35.153Z,48.70
2018-03-02T02:43:07.824Z,48.70
2018-03-02T02:45:40.469Z,48.80
2018-03-02T02:48:12.369Z,48.70
2018-03-02T02:50:45.018Z,48.60
2018-03-02T02:53:16.965Z,48.50
2018-03-02T02:55:48.915Z,48.60
2018-03-02T02:58:20.828Z,48.60
2018-03-02T03:00:53.561Z,48.70
2018-03-02T03:03:25.464Z,48.60
2018-03-02T03:05:58.202Z,48.70
2018-03-02T03:08:30.103Z,48.70
2018-03-02T03:11:02.840Z,48.70
2018-03-02T03:13:34.755Z,48.70
2018-03-02T03:16:06.651Z,48.80
2018-03-02T03:18:38.555Z,48.70
2018-03-02T03:21:11.307Z,49.00
2018-03-02T03:23:43.531Z,48.90
2018-03-02T03:26:15.412Z,49.00
2018-03-02T03:28:47.319Z,48.90
2018-03-02T03:31:19.200Z,48.80
2018-03-02T03:33:51.936Z,49.10
2018-03-02T03:36:23.812Z,49.00
2018-03-02T03:38:56.014Z,49.00
2018-03-02T03:41:28.180Z,48.70
2018-03-02T03:44:00.453Z,48.90
2018-03-02T03:46:32.615Z,48.70
2018-03-02T03:49:04.512Z,48.60
2018-03-02T03:51:36.391Z,48.80
2018-03-02T03:54:08.296Z,49.00
2018-03-02T03:56:40.175Z,48.90
2018-03-02T03:59:12.083Z,48.90
2018-03-02T04:01:43.960Z,49.00
2018-03-02T04:04:16.860Z,49.00
2018-03-02T04:06:48.744Z,48.90
2018-03-02T04:09:20.644Z,49.20
2018-03-02T04:11:52.523Z,49.10
2018-03-02T04:14:25.225Z,49.20
2018-03-02T04:16:57.067Z,49.00
2018-03-02T04:19:29.753Z,49.10
2018-03-02T04:22:02.423Z,49.10
2018-03-02T04:24:35.103Z,49.20
2018-03-02T04:27:07.752Z,49.10
2018-03-02T04:29:39.670Z,49.10
2018-03-02T04:32:11.759Z,48.90
2018-03-02T04:34:43.655Z,49.00
2018-03-02T04:37:16.295Z,49.30
2018-03-02T04:39:48.195Z,49.20
2018-03-02T04:42:20.836Z,49.60
2018-03-02T04:44:52.751Z,49.40
2018-03-02T04:47:24.638Z,49.80
2018-03-02T04:49:56.784Z,49.60
2018-03-02T04:52:28.944Z,49.50
2018-03-02T04:55:00.856Z,49.30
2018-03-02T04:57:32.735Z,49.40
2018-03-02T05:00:04.643Z,49.60
2018-03-02T05:02:36.527Z,49.70
2018-03-02T05:05:08.496Z,50.00
2018-03-02T05:07:40.716Z,50.10
2018-03-02T05:10:12.632Z,50.10
2018-03-02T05:12:44.589Z,50.00
2018-03-02T05:15:16.488Z,50.00
2018-03-02T05:17:49.283Z,50.30
2018-03-02T05:20:21.188Z,50.30
2018-03-02T05:22:53.072Z,50.20
2018-03-02T05:25:25.284Z,50.50
2018-03-02T05:27:57.151Z,50.70
2018-03-02T05:30:29.135Z,50.80
2018-03-02T05:33:01.070Z,50.90
2018-03-02T05:35:32.992Z,51.10
2018-03-02T05:38:05.739Z,51.30
2018-03-02T05:40:37.638Z,51.30
2018-03-02T05:43:10.274Z,51.40
2018-03-02T05:45:42.244Z,51.30
2018-03-02T05:48:14.124Z,51.30
2018-03-02T05:50:46.028Z,51.30
2018-03-02T05:53:17.903Z,51.30
2018-03-02T05:55:49.799Z,51.40
2018-03-02T05:58:21.690Z,51.60
2018-03-02T06:00:54.432Z,51.50
2018-03-02T06:03:26.540Z,51.50
2018-03-02T06:05:58.713Z,51.50
2018-03-02T06:08:30.873Z,51.60
2018-03-02T06:11:02.781Z,51.40
2018-03-02T06:13:34.660Z,51.40
2018-03-02T06:16:06.580Z,51.40
2018-03-02T06:18:38.567Z,51.50
2018-03-02T06:21:10.784Z,51.70
2018-03-02T06:23:42.672Z,51.70
2018-03-02T06:26:14.562Z,51.90
2018-03-02T06:28:46.521Z,52.00
2018-03-02T06:31:18.467Z,51.90
2018-03-02T06:33:50.435Z,51.90
2018-03-02T06:36:22.344Z,51.90
2018-03-02T06:38:54.226Z,51.80
2018-03-02T06:41:26.119Z,51.60
2018-03-02T06:43:58.007Z,51.60
2018-03-02T06:46:30.959Z,51.90
2018-03-02T06:49:02.876Z,51.90
2018-03-02T06:51:34.788Z,51.60
2018-03-02T06:54:08.231Z,51.70
2018-03-02T06:56:40.887Z,51.20
2018-03-02T06:59:13.078Z,51.20
2018-03-02T07:01:44.983Z,51.10
2018-03-02T07:04:16.904Z,51.10
2018-03-02T07:06:49.541Z,51.20
2018-03-02T07:09:21.423Z,51.10
2018-03-02T07:11:53.343Z,51.10
2018-03-02T07:14:25.215Z,51.00
2018-03-02T07:16:57.423Z,50.90
2018-03-02T07:19:29.304Z,51.00
2018-03-02T07:22:01.196Z,51.00
2018-03-02T07:24:33.080Z,51.10
2018-03-02T07:27:05.272Z,50.80
2018-03-02T07:29:37.144Z,50.50
2018-03-02T07:32:09.044Z,50.20
2018-03-02T07:34:40.919Z,50.20
2018-03-02T15:49:23.555Z,40.20
2018-03-02T15:51:55.351Z,40.30
2018-03-02T15:54:27.186Z,40.50
2018-03-02T15:56:59.038Z,40.80
2018-03-02T15:59:30.890Z,40.40
2018-03-02T16:02:02.741Z,40.30
2018-03-02T16:04:35.343Z,40.80
2018-03-02T16:07:07.218Z,40.80
2018-03-02T16:09:39.057Z,41.20
2018-03-02T16:12:11.005Z,41.60
2018-03-02T16:14:43.607Z,41.80
2018-03-02T16:17:15.457Z,41.70
2018-03-02T16:19:47.298Z,41.70
2018-03-02T16:22:19.965Z,41.50
2018-03-02T16:24:52.573Z,41.30
2018-03-02T16:27:24.424Z,41.30
2018-03-02T16:29:56.269Z,42.00
2018-03-02T16:32:28.883Z,41.80
2018-03-02T16:35:00.722Z,42.40
2018-03-02T16:37:32.570Z,42.40
2018-03-02T16:40:04.418Z,42.50
2018-03-02T16:42:37.020Z,42.80
2018-03-02T16:45:08.870Z,42.70
2018-03-02T16:47:40.723Z,43.20
2018-03-02T16:50:12.561Z,43.40
2018-03-02T16:52:45.177Z,43.80
2018-03-02T16:55:17.030Z,43.80
2018-03-02T16:57:48.895Z,43.90
2018-03-02T17:00:20.726Z,44.10
2018-03-02T17:02:53.346Z,44.50
2018-03-02T17:05:25.190Z,44.50
2018-03-02T17:07:57.036Z,44.50
2018-03-02T17:10:28.878Z,44.40
2018-03-02T17:13:01.495Z,45.00
2018-03-02T17:15:33.334Z,45.00
2018-03-02T17:18:05.185Z,44.90
2018-03-02T17:20:37.031Z,45.00
2018-03-02T17:23:09.641Z,45.10
2018-03-02T17:25:41.505Z,45.00
2018-03-02T17:28:13.338Z,45.20
2018-03-02T17:30:45.937Z,45.50
2018-03-02T17:33:17.789Z,45.50
2018-03-02T17:35:49.625Z,45.90
2018-03-02T17:38:22.242Z,45.80
2018-03-02T17:40:54.082Z,45.80
2018-03-02T17:43:25.934Z,45.90
2018-03-02T17:45:57.782Z,46.00
2018-03-02T17:48:30.403Z,45.90
2018-03-02T17:51:02.242Z,45.90
2018-03-02T17:53:34.089Z,46.00
2018-03-02T17:56:05.948Z,45.90
2018-03-02T17:58:37.794Z,45.90
2018-03-02T18:01:10.426Z,46.00
2018-03-02T18:03:42.289Z,46.00
2018-03-02T18:06:14.132Z,45.70
2018-03-02T18:08:46.261Z,44.90
2018-03-02T18:11:18.106Z,45.80
2018-03-02T18:13:50.726Z,45.30
2018-03-02T18:16:22.574Z,45.30
2018-03-02T18:18:54.414Z,46.00
2018-03-02T18:21:26.253Z,47.10
2018-03-02T18:23:58.875Z,49.50
2018-03-02T18:26:30.722Z,49.50
2018-03-02T18:29:02.598Z,50.40
2018-03-02T18:31:34.437Z,51.40
2018-03-02T18:34:06.302Z,52.20
2018-03-02T18:36:39.174Z,53.30
2018-03-02T18:39:11.049Z,53.30
2018-03-02T18:41:42.906Z,54.60
2018-03-02T18:44:14.749Z,55.70
2018-03-02T18:46:46.603Z,56.40
2018-03-02T18:49:19.214Z,59.10
2018-03-02T18:51:51.161Z,59.60
2018-03-02T18:54:23.017Z,60.40
2018-03-02T18:56:54.896Z,61.60
2018-03-02T18:59:26.755Z,62.40
2018-03-02T19:01:58.603Z,62.80
2018-03-02T19:04:30.567Z,63.60
2018-03-02T19:07:02.430Z,64.00
2018-03-02T19:09:34.394Z,64.70
2018-03-02T19:12:06.238Z,65.10
2018-03-02T19:14:38.106Z,65.40
2018-03-02T19:17:09.981Z,66.10
2018-03-02T19:19:41.833Z,67.70
2018-03-02T19:22:13.789Z,69.20
2018-03-02T19:24:45.746Z,70.00
2018-03-02T19:27:17.593Z,71.60
2018-03-02T19:29:49.481Z,72.30
2018-03-02T19:32:21.329Z,72.10
2018-03-02T19:34:53.196Z,73.30
2018-03-02T19:37:25.047Z,73.80
2018-03-02T19:39:57.030Z,74.10
2018-03-02T19:42:29.058Z,74.50
2018-03-02T19:45:01.689Z,76.20
2018-03-02T19:47:33.610Z,76.20
2018-03-02T19:50:05.469Z,77.00
2018-03-02T19:52:37.313Z,78.10
2018-03-02T19:55:09.194Z,78.10
2018-03-02T19:57:41.047Z,79.80
2018-03-02T20:00:12.909Z,80.20
2018-03-02T20:02:44.757Z,80.80
2018-03-02T20:05:16.615Z,81.50
2018-03-02T20:07:48.462Z,82.40
2018-03-02T20:10:20.326Z,82.80
2018-03-02T20:12:52.171Z,83.30
2018-03-02T20:18:15.029Z,84.40
2018-03-02T20:20:46.968Z,84.30
2018-03-02T20:23:25.674Z,84.40
2018-03-02T20:25:57.813Z,84.50
2018-03-02T20:28:29.691Z,84.20
2018-03-02T20:31:01.607Z,84.80
2018-03-02T20:33:33.476Z,85.20
2018-03-02T20:36:06.146Z,85.20
2018-03-02T20:38:38.032Z,85.20
2018-03-02T20:41:09.919Z,85.30
2018-03-02T20:43:41.795Z,85.50
2018-03-02T20:46:13.917Z,85.90
2018-03-02T20:48:45.793Z,86.00
2018-03-02T20:51:17.681Z,86.20
2018-03-02T20:53:49.551Z,86.60
2018-03-02T20:56:21.439Z,86.30
2018-03-02T20:58:54.359Z,86.00
2018-03-02T21:01:26.247Z,86.00
2018-03-02T21:03:58.122Z,86.20
2018-03-02T21:06:30.016Z,87.00
2018-03-02T21:09:01.890Z,87.00
2018-03-02T21:11:33.779Z,86.90
2018-03-02T21:14:05.657Z,86.80
2018-03-02T21:16:37.552Z,87.60
2018-03-02T21:19:10.188Z,88.50
2018-03-02T21:21:42.143Z,88.40
2018-03-02T21:24:14.368Z,88.50
2018-03-02T21:26:46.535Z,88.30
2018-03-02T21:29:18.416Z,89.00
2018-03-02T21:31:50.411Z,89.60
2018-03-02T21:34:23.699Z,89.70
2018-03-02T21:36:54.947Z,90.10
2018-03-02T21:39:26.824Z,90.30
2018-03-02T21:41:58.818Z,90.50
2018-03-02T21:44:30.690Z,90.50
2018-03-02T21:47:02.843Z,90.50
2018-03-02T21:49:34.728Z,90.60
2018-03-02T21:52:06.611Z,91.00
2018-03-02T21:54:38.487Z,90.80
2018-03-02T21:57:10.387Z,91.00
2018-03-02T21:59:42.263Z,91.20
2018-03-02T22:02:14.247Z,91.20
2018-03-02T22:04:46.211Z,91.10
2018-03-02T22:07:18.103Z,91.10
2018-03-02T22:09:50.751Z,90.90
2018-03-02T22:12:22.643Z,90.90
2018-03-02T22:14:55.393Z,91.00
2018-03-02T22:17:27.351Z,91.00
2018-03-02T22:19:59.606Z,90.80
2018-03-02T22:22:31.473Z,90.60
2018-03-02T22:25:03.355Z,90.70
2018-03-02T22:27:35.564Z,90.70
2018-03-02T22:30:07.444Z,90.70
2018-03-02T22:32:39.336Z,90.70
2018-03-02T22:35:11.225Z,90.70
2018-03-02T22:37:43.894Z,90.80
2018-03-02T22:40:15.772Z,90.80
2018-03-02T22:42:48.663Z,90.60
2018-03-02T22:45:20.542Z,90.60
2018-03-02T22:47:52.423Z,90.60
2018-03-02T22:50:24.303Z,90.70
2018-03-02T22:52:56.207Z,90.80
2018-03-02T22:55:28.088Z,90.90
2018-03-02T22:57:59.975Z,90.60
2018-03-02T23:00:34.695Z,90.80
2018-03-02T23:03:06.594Z,90.70
2018-03-02T23:05:39.247Z,90.60
2018-03-02T23:08:11.138Z,90.60
2018-03-02T23:10:43.784Z,90.80
2018-03-02T23:13:15.890Z,90.80
2018-03-02T23:15:47.789Z,90.70
2018-03-02T23:18:19.919Z,90.80
2018-03-02T23:20:51.840Z,90.80
2018-03-02T23:23:23.688Z,90.90
2018-03-02T23:25:55.560Z,91.00
2018-03-02T23:28:27.455Z,91.20
2018-03-02T23:30:59.334Z,91.10
2018-03-02T23:33:31.220Z,91.10
2018-03-02T23:36:03.107Z,91.20
2018-03-02T23:38:35.863Z,91.60
2018-03-02T23:41:07.747Z,91.40
2018-03-02T23:43:39.644Z,91.60
2018-03-02T23:46:11.520Z,91.70
2018-03-02T23:48:43.412Z,91.70
2018-03-02T23:51:15.291Z,91.60
2018-03-02T23:53:47.955Z,92.00
2018-03-02T23:56:19.835Z,91.80
2018-03-02T23:58:52.491Z,91.80
